Time,TemperatureF,DewpointF,PressureIn,WindDirection,WindDirectionDegrees,WindSpeedMPH,WindSpeedGustMPH,Humidity,HourlyPrecipIn,Conditions,Clouds,dailyrainin,SoftwareType,DateUTC
2013-02-16 00:00:00,33.4,31.4,30.01,NW,310,6.9,6.9,92,0.00,-SN,,0.00,WeatherDisplay:10.37,2013-02-16 05:00:00,
2013-02-16 00:03:00,33.4,30.3,30.01,NNW,340,3.5,3.5,88,0.00,-SN,,0.00,WeatherDisplay:10.37,2013-02-16 05:03:00,
2013-02-16 00:08:00,33.3,30.1,30.01,NNW,340,3.5,3.5,88,0.00,-SN,,0.00,WeatherDisplay:10.37,2013-02-16 05:08:00,
2013-02-16 00:13:00,33.3,30.1,30.01,NNW,340,3.5,3.5,88,0.00,-SN,,0.00,WeatherDisplay:10.37,2013-02-16 05:13:00,
2013-02-16 00:18:00,33.3,30.1,30.01,NNW,340,3.5,3.5,88,0.00,-SN,,0.00,WeatherDisplay:10.37,2013-02-16 05:18:00,
2013-02-16 00:23:00,33.3,30.1,30.01,NNW,340,3.5,3.5,88,0.00,-SN,,0.00,WeatherDisplay:10.37,2013-02-16 05:23:00,
2013-02-16 00:28:00,33.1,29.9,30.04,NNW,340,3.5,3.5,88,0.00,-SN,,0.00,WeatherDisplay:10.37,2013-02-16 05:28:00,
2013-02-16 00:33:00,32.9,29.7,30.04,NNW,340,3.5,3.5,88,0.00,-SN,,0.00,WeatherDisplay:10.37,2013-02-16 05:33:00,
2013-02-16 00:38:00,32.9,29.7,30.04,NNW,340,3.5,3.5,88,0.00,-SN,,0.00,WeatherDisplay:10.37,2013-02-16 05:38:00,
2013-02-16 00:43:00,32.9,29.7,30.01,NNW,340,3.5,3.5,88,0.00,-SN,,0.00,WeatherDisplay:10.37,2013-02-16 05:43:00,
2013-02-16 00:48:00,33.1,29.9,30.01,NNW,340,3.5,3.5,88,0.00,-SN,,0.00,WeatherDisplay:10.37,2013-02-16 05:48:00,
2013-02-16 00:53:00,33.1,29.9,30.01,NNW,340,3.5,3.5,88,0.00,-SN,,0.00,WeatherDisplay:10.37,2013-02-16 05:53:00,
2013-02-16 00:58:00,33.1,29.9,30.04,NNW,340,3.5,3.5,88,0.00,-SN,,0.00,WeatherDisplay:10.37,2013-02-16 05:58:00,
2013-02-16 01:03:00,33.1,27.6,30.04,NNW,340,3.5,3.5,80,0.00,-SN,,0.00,WeatherDisplay:10.37,2013-02-16 06:03:00,
2013-02-16 01:08:00,33.1,27.6,30.04,NNW,340,3.5,3.5,80,0.00,-SN,,0.00,WeatherDisplay:10.37,2013-02-16 06:08:00,
2013-02-16 01:13:00,32.9,27.4,30.01,NNW,340,3.5,3.5,80,0.00,-SN,,0.00,WeatherDisplay:10.37,2013-02-16 06:13:00,
2013-02-16 01:18:00,33.1,26.0,30.01,West,280,6.9,6.9,75,0.00,-SN,,0.00,WeatherDisplay:10.37,2013-02-16 06:18:00,
2013-02-16 01:23:00,33.1,26.0,30.01,West,280,6.9,6.9,75,0.00,-SN,,0.00,WeatherDisplay:10.37,2013-02-16 06:23:00,
2013-02-16 01:28:00,32.9,25.8,30.01,West,280,6.9,6.9,75,0.00,-SN,,0.00,WeatherDisplay:10.37,2013-02-16 06:28:00,
2013-02-16 01:33:00,32.9,25.8,30.01,West,280,6.9,6.9,75,0.00,-SN,,0.00,WeatherDisplay:10.37,2013-02-16 06:33:00,
2013-02-16 01:38:00,32.9,25.8,30.01,West,280,6.9,6.9,75,0.00,-SN,,0.00,WeatherDisplay:10.37,2013-02-16 06:38:00,
2013-02-16 01:43:00,32.9,25.8,30.01,West,280,6.9,6.9,75,0.00,-SN,,0.00,WeatherDisplay:10.37,2013-02-16 06:43:00,
2013-02-16 01:48:00,32.7,25.7,30.01,West,280,6.9,6.9,75,0.00,-SN,,0.00,WeatherDisplay:10.37,2013-02-16 06:48:00,
2013-02-16 01:53:00,32.7,25.7,30.01,West,280,6.9,6.9,75,0.00,-SN,,0.00,WeatherDisplay:10.37,2013-02-16 06:53:00,
2013-02-16 01:58:00,32.5,25.5,30.01,West,280,6.9,6.9,75,0.00,-SN,,0.00,WeatherDisplay:10.37,2013-02-16 06:58:00,
2013-02-16 02:03:00,32.7,29.6,30.01,SE,140,3.5,3.5,88,0.00,-SN,,0.00,WeatherDisplay:10.37,2013-02-16 07:03:00,
2013-02-16 02:08:00,32.7,29.6,30.01,SE,140,3.5,3.5,88,0.00,-SN,,0.00,WeatherDisplay:10.37,2013-02-16 07:08:00,
2013-02-16 02:13:00,32.5,29.4,30.01,SE,140,3.5,3.5,88,0.00,-SN,,0.00,WeatherDisplay:10.37,2013-02-16 07:13:00,
2013-02-16 02:18:00,32.7,29.6,30.01,SE,140,3.5,3.5,88,0.00,-SN,,0.00,WeatherDisplay:10.37,2013-02-16 07:18:00,
2013-02-16 02:23:00,32.5,29.4,30.01,SE,140,3.5,3.5,88,0.00,-SN,,0.00,WeatherDisplay:10.37,2013-02-16 07:23:00,
2013-02-16 02:28:00,32.5,29.4,30.01,SE,140,3.5,3.5,88,0.00,-SN,,0.00,WeatherDisplay:10.37,2013-02-16 07:28:00,
2013-02-16 02:33:00,32.5,29.4,30.01,SE,140,3.5,3.5,88,0.00,-SN,,0.00,WeatherDisplay:10.37,2013-02-16 07:33:00,
2013-02-16 02:38:00,32.4,29.2,30.01,SE,140,3.5,3.5,88,0.00,-SN,,0.00,WeatherDisplay:10.37,2013-02-16 07:38:00,
2013-02-16 02:43:00,32.5,29.4,29.98,SE,140,3.5,3.5,88,0.00,-SN,,0.00,WeatherDisplay:10.37,2013-02-16 07:43:00,
2013-02-16 02:48:00,32.4,29.2,29.98,SE,140,3.5,3.5,88,0.00,-SN,,0.00,WeatherDisplay:10.37,2013-02-16 07:48:00,
2013-02-16 02:53:00,32.4,29.2,29.98,SE,140,3.5,3.5,88,0.00,-SN,,0.00,WeatherDisplay:10.37,2013-02-16 07:53:00,
2013-02-16 02:58:00,32.5,29.4,29.98,SE,140,3.5,3.5,88,0.00,-SN,,0.00,WeatherDisplay:10.37,2013-02-16 07:58:00,
2013-02-16 03:03:00,32.4,29.2,29.98,SE,140,3.5,3.5,88,0.00,-SN,,0.00,WeatherDisplay:10.37,2013-02-16 08:03:00,
2013-02-16 03:08:00,32.2,29.0,29.98,SE,140,3.5,3.5,88,0.00,-SN,,0.00,WeatherDisplay:10.37,2013-02-16 08:08:00,
2013-02-16 03:13:00,32.4,29.2,29.98,SE,140,3.5,3.5,88,0.00,-SN,,0.00,WeatherDisplay:10.37,2013-02-16 08:13:00,
2013-02-16 03:18:00,32.2,30.1,29.98,SE,140,0.0,0.0,92,0.00,OVC,,0.00,WeatherDisplay:10.37,2013-02-16 08:18:00,
2013-02-16 03:23:00,32.2,30.1,29.98,SE,140,0.0,0.0,92,0.00,OVC,,0.00,WeatherDisplay:10.37,2013-02-16 08:23:00,
2013-02-16 03:28:00,32.4,30.3,30.01,SE,140,0.0,0.0,92,0.00,OVC,,0.00,WeatherDisplay:10.37,2013-02-16 08:28:00,
2013-02-16 03:33:00,32.4,30.3,30.01,SE,140,0.0,0.0,92,0.00,OVC,,0.00,WeatherDisplay:10.37,2013-02-16 08:33:00,
2013-02-16 03:38:00,32.4,30.3,30.01,SE,140,0.0,0.0,92,0.00,OVC,,0.00,WeatherDisplay:10.37,2013-02-16 08:38:00,
2013-02-16 03:43:00,32.4,30.3,29.98,SE,140,0.0,0.0,92,0.00,OVC,,0.00,WeatherDisplay:10.37,2013-02-16 08:43:00,
2013-02-16 03:48:00,32.2,30.1,29.98,SE,140,0.0,0.0,92,0.00,OVC,,0.00,WeatherDisplay:10.37,2013-02-16 08:48:00,
2013-02-16 03:53:00,32.2,30.1,29.98,SE,140,0.0,0.0,92,0.00,OVC,,0.00,WeatherDisplay:10.37,2013-02-16 08:53:00,
2013-02-16 03:58:00,32.2,30.1,29.98,SE,140,0.0,0.0,92,0.00,OVC,,0.00,WeatherDisplay:10.37,2013-02-16 08:58:00,
2013-02-16 04:03:00,32.2,22.8,29.98,NW,320,8.1,8.1,68,0.00,BKN,,0.00,WeatherDisplay:10.37,2013-02-16 09:03:00,
2013-02-16 04:08:00,32.2,22.8,29.98,NW,320,8.1,8.1,68,0.00,BKN,,0.00,WeatherDisplay:10.37,2013-02-16 09:08:00,
2013-02-16 04:13:00,32.2,22.8,29.98,NW,320,8.1,8.1,68,0.00,BKN,,0.00,WeatherDisplay:10.37,2013-02-16 09:13:00,
2013-02-16 04:18:00,32.0,22.6,29.98,NW,320,8.1,8.1,68,0.00,BKN,,0.00,WeatherDisplay:10.37,2013-02-16 09:18:00,
2013-02-16 04:23:00,31.6,22.3,29.98,NW,320,8.1,8.1,68,0.00,BKN,,0.00,WeatherDisplay:10.37,2013-02-16 09:23:00,
2013-02-16 04:28:00,31.5,22.1,29.98,NW,320,8.1,8.1,68,0.00,BKN,,0.00,WeatherDisplay:10.37,2013-02-16 09:28:00,
2013-02-16 04:33:00,31.5,22.1,29.98,NW,320,8.1,8.1,68,0.00,BKN,,0.00,WeatherDisplay:10.37,2013-02-16 09:33:00,
2013-02-16 04:38:00,31.1,21.8,29.98,NW,320,8.1,8.1,68,0.00,BKN,,0.00,WeatherDisplay:10.37,2013-02-16 09:38:00,
2013-02-16 04:43:00,30.9,21.6,29.98,NW,320,8.1,8.1,68,0.00,BKN,,0.00,WeatherDisplay:10.37,2013-02-16 09:43:00,
2013-02-16 04:48:00,30.4,21.1,29.98,NW,320,8.1,8.1,68,0.00,BKN,,0.00,WeatherDisplay:10.37,2013-02-16 09:48:00,
2013-02-16 04:53:00,30.2,20.9,29.98,NW,320,8.1,8.1,68,0.00,BKN,,0.00,WeatherDisplay:10.37,2013-02-16 09:53:00,
2013-02-16 04:58:00,29.7,20.4,29.98,NW,320,8.1,8.1,68,0.00,BKN,,0.00,WeatherDisplay:10.37,2013-02-16 09:58:00,
2013-02-16 05:03:00,29.5,17.3,29.98,WNW,300,11.5,11.5,60,0.00,SCT,,0.00,WeatherDisplay:10.37,2013-02-16 10:03:00,
2013-02-16 05:08:00,29.3,17.1,29.98,WNW,300,11.5,11.5,60,0.00,SCT,,0.00,WeatherDisplay:10.37,2013-02-16 10:08:00,
2013-02-16 05:13:00,29.1,17.0,29.98,WNW,300,11.5,11.5,60,0.00,SCT,,0.00,WeatherDisplay:10.37,2013-02-16 10:13:00,
2013-02-16 05:18:00,29.1,17.0,29.98,WNW,300,11.5,11.5,60,0.00,SCT,,0.00,WeatherDisplay:10.37,2013-02-16 10:18:00,
2013-02-16 05:23:00,28.9,16.8,29.98,WNW,300,11.5,11.5,60,0.00,SCT,,0.00,WeatherDisplay:10.37,2013-02-16 10:23:00,
2013-02-16 05:28:00,28.9,16.8,29.98,WNW,300,11.5,11.5,60,0.00,SCT,,0.00,WeatherDisplay:10.37,2013-02-16 10:28:00,
2013-02-16 05:33:00,28.8,16.6,29.98,WNW,300,11.5,11.5,60,0.00,SCT,,0.00,WeatherDisplay:10.37,2013-02-16 10:33:00,
2013-02-16 05:38:00,28.8,16.6,29.98,WNW,300,11.5,11.5,60,0.00,SCT,,0.00,WeatherDisplay:10.37,2013-02-16 10:38:00,
2013-02-16 05:43:00,28.8,16.6,29.98,WNW,300,11.5,11.5,60,0.00,SCT,,0.00,WeatherDisplay:10.37,2013-02-16 10:43:00,
2013-02-16 05:48:00,28.8,16.6,29.98,WNW,300,11.5,11.5,60,0.00,SCT,,0.00,WeatherDisplay:10.37,2013-02-16 10:48:00,
2013-02-16 05:53:00,28.8,16.6,29.98,WNW,300,11.5,11.5,60,0.00,SCT,,0.00,WeatherDisplay:10.37,2013-02-16 10:53:00,
2013-02-16 05:58:00,28.8,16.6,30.01,WNW,300,11.5,11.5,60,0.00,SCT,,0.00,WeatherDisplay:10.37,2013-02-16 10:58:00,
2013-02-16 06:03:00,28.8,17.4,30.01,NW,310,8.1,8.1,62,0.00,BKN,,0.00,WeatherDisplay:10.37,2013-02-16 11:03:00,
2013-02-16 06:08:00,28.8,17.4,30.01,NW,310,8.1,8.1,62,0.00,BKN,,0.00,WeatherDisplay:10.37,2013-02-16 11:08:00,
2013-02-16 06:13:00,28.6,17.2,30.01,NW,310,8.1,8.1,62,0.00,BKN,,0.00,WeatherDisplay:10.37,2013-02-16 11:13:00,
2013-02-16 06:18:00,28.8,17.4,30.01,NW,310,8.1,8.1,62,0.00,BKN,,0.00,WeatherDisplay:10.37,2013-02-16 11:18:00,
2013-02-16 06:23:00,28.6,17.2,30.01,NW,310,8.1,8.1,62,0.00,BKN,,0.00,WeatherDisplay:10.37,2013-02-16 11:23:00,
2013-02-16 06:28:00,28.6,17.2,29.98,NW,310,8.1,8.1,62,0.00,BKN,,0.00,WeatherDisplay:10.37,2013-02-16 11:28:00,
2013-02-16 06:33:00,28.6,17.2,29.98,NW,310,8.1,8.1,62,0.00,BKN,,0.00,WeatherDisplay:10.37,2013-02-16 11:33:00,
2013-02-16 06:38:00,28.4,17.0,29.98,NW,310,8.1,8.1,62,0.00,BKN,,0.00,WeatherDisplay:10.37,2013-02-16 11:38:00,
2013-02-16 06:43:00,28.4,17.0,30.01,NW,310,8.1,8.1,62,0.00,BKN,,0.00,WeatherDisplay:10.37,2013-02-16 11:43:00,
2013-02-16 06:48:00,28.4,17.0,30.01,NW,310,8.1,8.1,62,0.00,BKN,,0.00,WeatherDisplay:10.37,2013-02-16 11:48:00,
2013-02-16 06:53:00,28.4,17.0,30.01,NW,310,8.1,8.1,62,0.00,BKN,,0.00,WeatherDisplay:10.37,2013-02-16 11:53:00,
2013-02-16 06:58:00,28.4,17.0,30.01,NW,310,8.1,8.1,62,0.00,BKN,,0.00,WeatherDisplay:10.37,2013-02-16 11:58:00,
2013-02-16 07:03:00,28.4,17.0,30.01,NW,310,8.1,8.1,62,0.00,BKN,,0.00,WeatherDisplay:10.37,2013-02-16 12:03:00,
2013-02-16 07:08:00,28.4,17.0,30.01,NW,310,8.1,8.1,62,0.00,BKN,,0.00,WeatherDisplay:10.37,2013-02-16 12:08:00,
2013-02-16 07:13:00,28.2,16.9,30.01,NW,310,8.1,8.1,62,0.00,BKN,,0.00,WeatherDisplay:10.37,2013-02-16 12:13:00,
2013-02-16 07:18:00,28.2,16.9,30.01,NW,310,0.0,0.0,62,0.00,BKN,,0.00,WeatherDisplay:10.37,2013-02-16 12:18:00,
2013-02-16 07:23:00,28.2,16.9,30.01,NW,310,0.0,0.0,62,0.00,BKN,,0.00,WeatherDisplay:10.37,2013-02-16 12:23:00,
2013-02-16 07:28:00,28.4,17.0,30.01,NW,310,0.0,0.0,62,0.00,BKN,,0.00,WeatherDisplay:10.37,2013-02-16 12:28:00,
2013-02-16 07:33:00,28.4,17.0,30.01,NW,310,0.0,0.0,62,0.00,BKN,,0.00,WeatherDisplay:10.37,2013-02-16 12:33:00,
2013-02-16 07:38:00,28.4,17.0,30.01,NW,310,0.0,0.0,62,0.00,BKN,,0.00,WeatherDisplay:10.37,2013-02-16 12:38:00,
2013-02-16 07:43:00,28.6,17.2,30.01,NW,310,0.0,0.0,62,0.00,BKN,,0.00,WeatherDisplay:10.37,2013-02-16 12:43:00,
2013-02-16 07:48:00,28.6,17.2,30.01,NW,310,0.0,0.0,62,0.00,BKN,,0.00,WeatherDisplay:10.37,2013-02-16 12:48:00,
2013-02-16 07:53:00,28.6,17.2,30.01,NW,310,0.0,0.0,62,0.00,BKN,,0.00,WeatherDisplay:10.37,2013-02-16 12:53:00,
2013-02-16 07:58:00,28.6,17.2,30.01,NW,310,0.0,0.0,62,0.00,BKN,,0.00,WeatherDisplay:10.37,2013-02-16 12:58:00,
2013-02-16 08:03:00,28.6,18.3,30.01,WNW,300,6.9,6.9,65,0.00,BKN,,0.00,WeatherDisplay:10.37,2013-02-16 13:03:00,
2013-02-16 08:09:00,28.6,18.3,30.01,WNW,300,6.9,6.9,65,0.00,BKN,,0.00,WeatherDisplay:10.37,2013-02-16 13:09:00,
2013-02-16 08:14:00,28.8,18.5,30.01,WNW,300,6.9,6.9,65,0.00,BKN,,0.00,WeatherDisplay:10.37,2013-02-16 13:14:00,
2013-02-16 08:19:00,28.9,18.6,30.01,WNW,300,6.9,6.9,65,0.00,BKN,,0.00,WeatherDisplay:10.37,2013-02-16 13:19:00,
2013-02-16 08:24:00,29.1,18.8,30.01,WNW,300,6.9,6.9,65,0.00,BKN,,0.00,WeatherDisplay:10.37,2013-02-16 13:24:00,
2013-02-16 08:29:00,29.1,18.8,30.01,WNW,300,6.9,6.9,65,0.00,BKN,,0.00,WeatherDisplay:10.37,2013-02-16 13:29:00,
2013-02-16 08:34:00,29.3,19.0,30.01,WNW,300,6.9,6.9,65,0.00,BKN,,0.00,WeatherDisplay:10.37,2013-02-16 13:34:00,
2013-02-16 08:39:00,29.5,19.2,30.01,WNW,300,6.9,6.9,65,0.00,BKN,,0.00,WeatherDisplay:10.37,2013-02-16 13:39:00,
2013-02-16 08:44:00,29.7,19.3,30.01,WNW,300,6.9,6.9,65,0.00,BKN,,0.00,WeatherDisplay:10.37,2013-02-16 13:44:00,
2013-02-16 08:49:00,29.7,19.3,30.01,WNW,300,6.9,6.9,65,0.00,BKN,,0.00,WeatherDisplay:10.37,2013-02-16 13:49:00,
2013-02-16 08:54:00,29.7,19.3,30.01,WNW,300,6.9,6.9,65,0.00,BKN,,0.00,WeatherDisplay:10.37,2013-02-16 13:54:00,
2013-02-16 08:59:00,30.0,19.7,30.01,WNW,300,6.9,6.9,65,0.00,BKN,,0.00,WeatherDisplay:10.37,2013-02-16 13:59:00,
2013-02-16 09:04:00,30.4,20.0,30.01,NNW,340,9.2,9.2,65,0.00,BKN,,0.00,WeatherDisplay:10.37,2013-02-16 14:04:00,
2013-02-16 09:09:00,30.6,20.2,30.01,NNW,340,9.2,9.2,65,0.00,BKN,,0.00,WeatherDisplay:10.37,2013-02-16 14:09:00,
2013-02-16 09:14:00,31.1,20.7,30.01,NNW,340,9.2,9.2,65,0.00,BKN,,0.00,WeatherDisplay:10.37,2013-02-16 14:14:00,
2013-02-16 09:19:00,31.5,21.0,30.01,NNW,340,9.2,9.2,65,0.00,BKN,,0.00,WeatherDisplay:10.37,2013-02-16 14:19:00,
2013-02-16 09:24:00,31.3,20.9,30.01,NNW,340,9.2,9.2,65,0.00,BKN,,0.00,WeatherDisplay:10.37,2013-02-16 14:24:00,
2013-02-16 09:29:00,31.5,21.0,30.01,NNW,340,9.2,9.2,65,0.00,BKN,,0.00,WeatherDisplay:10.37,2013-02-16 14:29:00,
2013-02-16 09:34:00,31.1,20.7,30.01,NNW,340,9.2,9.2,65,0.00,BKN,,0.00,WeatherDisplay:10.37,2013-02-16 14:34:00,
2013-02-16 09:39:00,31.1,20.7,30.01,NNW,340,9.2,9.2,65,0.00,BKN,,0.00,WeatherDisplay:10.37,2013-02-16 14:39:00,
2013-02-16 09:44:00,31.5,21.0,30.01,NNW,340,9.2,9.2,65,0.00,BKN,,0.00,WeatherDisplay:10.37,2013-02-16 14:44:00,
2013-02-16 09:49:00,31.6,21.2,30.01,NNW,340,9.2,9.2,65,0.00,BKN,,0.00,WeatherDisplay:10.37,2013-02-16 14:49:00,
2013-02-16 09:54:00,32.0,21.6,30.01,NNW,340,9.2,9.2,65,0.00,BKN,,0.00,WeatherDisplay:10.37,2013-02-16 14:54:00,
2013-02-16 09:59:00,32.2,21.7,30.01,NNW,340,9.2,9.2,65,0.00,BKN,,0.00,WeatherDisplay:10.37,2013-02-16 14:59:00,
2013-02-16 10:04:00,32.0,19.7,30.01,NNW,340,6.9,6.9,60,0.00,BKN,,0.00,WeatherDisplay:10.37,2013-02-16 15:04:00,
2013-02-16 10:09:00,31.8,19.5,30.01,NNW,340,6.9,6.9,60,0.00,BKN,,0.00,WeatherDisplay:10.37,2013-02-16 15:09:00,
2013-02-16 10:14:00,32.2,19.8,30.01,NNW,340,6.9,6.9,60,0.00,BKN,,0.00,WeatherDisplay:10.37,2013-02-16 15:14:00,
2013-02-16 10:19:00,32.2,19.8,30.01,NNW,340,6.9,6.9,60,0.00,BKN,,0.00,WeatherDisplay:10.37,2013-02-16 15:19:00,
2013-02-16 10:24:00,32.7,20.4,30.01,NNW,340,6.9,6.9,60,0.00,BKN,,0.00,WeatherDisplay:10.37,2013-02-16 15:24:00,
2013-02-16 10:29:00,32.5,20.2,30.01,NNW,340,6.9,6.9,60,0.00,BKN,,0.00,WeatherDisplay:10.37,2013-02-16 15:29:00,
2013-02-16 10:34:00,32.5,20.2,30.01,NNW,340,6.9,6.9,60,0.00,BKN,,0.00,WeatherDisplay:10.37,2013-02-16 15:34:00,
2013-02-16 10:39:00,32.7,20.4,30.01,NNW,340,6.9,6.9,60,0.00,BKN,,0.00,WeatherDisplay:10.37,2013-02-16 15:39:00,
2013-02-16 10:44:00,32.2,19.8,29.98,NNW,340,6.9,6.9,60,0.00,BKN,,0.00,WeatherDisplay:10.37,2013-02-16 15:44:00,
2013-02-16 10:49:00,32.5,20.2,29.98,NNW,340,6.9,6.9,60,0.00,BKN,,0.00,WeatherDisplay:10.37,2013-02-16 15:49:00,
2013-02-16 10:54:00,32.5,20.2,29.98,NNW,340,6.9,6.9,60,0.00,BKN,,0.00,WeatherDisplay:10.37,2013-02-16 15:54:00,
2013-02-16 10:59:00,32.7,20.4,30.01,NNW,340,6.9,6.9,60,0.00,BKN,,0.00,WeatherDisplay:10.37,2013-02-16 15:59:00,
2013-02-16 11:04:00,32.7,20.4,30.01,NNW,340,6.9,6.9,60,0.00,BKN,,0.00,WeatherDisplay:10.37,2013-02-16 16:04:00,
2013-02-16 11:09:00,32.5,20.2,30.01,NNW,340,6.9,6.9,60,0.00,BKN,,0.00,WeatherDisplay:10.37,2013-02-16 16:09:00,
2013-02-16 11:14:00,32.7,20.4,30.01,NNW,340,6.9,6.9,60,0.00,BKN,,0.00,WeatherDisplay:10.37,2013-02-16 16:14:00,
2013-02-16 11:19:00,32.9,18.5,30.01,NW,310,10.4,10.4,55,0.00,BKN,,0.00,WeatherDisplay:10.37,2013-02-16 16:19:00,
2013-02-16 11:24:00,32.9,18.5,30.01,NW,310,10.4,10.4,55,0.00,BKN,,0.00,WeatherDisplay:10.37,2013-02-16 16:24:00,
2013-02-16 11:29:00,32.9,18.5,29.98,NW,310,10.4,10.4,55,0.00,BKN,,0.00,WeatherDisplay:10.37,2013-02-16 16:29:00,
2013-02-16 11:34:00,33.1,18.7,29.98,NW,310,10.4,10.4,55,0.00,BKN,,0.00,WeatherDisplay:10.37,2013-02-16 16:34:00,
2013-02-16 11:39:00,33.3,18.8,29.98,NW,310,10.4,10.4,55,0.00,BKN,,0.00,WeatherDisplay:10.37,2013-02-16 16:39:00,
2013-02-16 11:44:00,32.9,18.5,29.98,NW,310,10.4,10.4,55,0.00,BKN,,0.00,WeatherDisplay:10.37,2013-02-16 16:44:00,
2013-02-16 11:49:00,33.1,18.7,29.98,NW,310,10.4,10.4,55,0.00,BKN,,0.00,WeatherDisplay:10.37,2013-02-16 16:49:00,
2013-02-16 11:54:00,33.3,18.8,29.98,NW,310,10.4,10.4,55,0.00,BKN,,0.00,WeatherDisplay:10.37,2013-02-16 16:54:00,
2013-02-16 11:59:00,33.3,18.8,29.98,NW,310,10.4,10.4,55,0.00,BKN,,0.00,WeatherDisplay:10.37,2013-02-16 16:59:00,
2013-02-16 12:04:00,33.6,19.2,29.98,WNW,290,12.7,19.6,55,0.00,BKN,,0.00,WeatherDisplay:10.37,2013-02-16 17:04:00,
2013-02-16 12:09:00,33.6,19.2,29.98,WNW,290,12.7,19.6,55,0.00,BKN,,0.00,WeatherDisplay:10.37,2013-02-16 17:09:00,
2013-02-16 12:14:00,33.4,19.0,29.98,WNW,290,12.7,19.6,55,0.00,BKN,,0.00,WeatherDisplay:10.37,2013-02-16 17:14:00,
2013-02-16 12:19:00,33.6,19.2,29.98,WNW,290,12.7,19.6,55,0.00,BKN,,0.00,WeatherDisplay:10.37,2013-02-16 17:19:00,
2013-02-16 12:24:00,34.0,19.5,29.98,WNW,290,12.7,19.6,55,0.00,BKN,,0.00,WeatherDisplay:10.37,2013-02-16 17:24:00,
2013-02-16 12:29:00,34.0,19.5,29.95,WNW,290,12.7,19.6,55,0.00,BKN,,0.00,WeatherDisplay:10.37,2013-02-16 17:29:00,
2013-02-16 12:34:00,33.6,19.2,29.95,WNW,290,12.7,19.6,55,0.00,BKN,,0.00,WeatherDisplay:10.37,2013-02-16 17:34:00,
2013-02-16 12:39:00,33.4,19.0,29.95,WNW,290,12.7,19.6,55,0.00,BKN,,0.00,WeatherDisplay:10.37,2013-02-16 17:39:00,
2013-02-16 12:44:00,33.8,19.3,29.95,WNW,290,12.7,19.6,55,0.00,BKN,,0.00,WeatherDisplay:10.37,2013-02-16 17:44:00,
2013-02-16 12:49:00,34.2,19.7,29.95,WNW,290,12.7,19.6,55,0.00,BKN,,0.00,WeatherDisplay:10.37,2013-02-16 17:49:00,
2013-02-16 12:54:00,33.8,19.3,29.95,WNW,290,12.7,19.6,55,0.00,BKN,,0.00,WeatherDisplay:10.37,2013-02-16 17:54:00,
2013-02-16 12:59:00,33.8,19.3,29.95,WNW,290,12.7,19.6,55,0.00,BKN,,0.00,WeatherDisplay:10.37,2013-02-16 17:59:00,
2013-02-16 13:04:00,34.0,17.7,29.95,NW,310,10.4,10.4,51,0.00,BKN,,0.00,WeatherDisplay:10.37,2013-02-16 18:04:00,
2013-02-16 13:09:00,34.2,17.9,29.95,NW,310,10.4,10.4,51,0.00,BKN,,0.00,WeatherDisplay:10.37,2013-02-16 18:09:00,
2013-02-16 13:14:00,34.2,17.9,29.95,NW,310,10.4,10.4,51,0.00,BKN,,0.00,WeatherDisplay:10.37,2013-02-16 18:14:00,
2013-02-16 13:19:00,34.0,17.7,29.95,NW,310,10.4,10.4,51,0.00,BKN,,0.00,WeatherDisplay:10.37,2013-02-16 18:19:00,
2013-02-16 13:24:00,34.2,17.9,29.95,NW,310,10.4,10.4,51,0.00,BKN,,0.00,WeatherDisplay:10.37,2013-02-16 18:24:00,
2013-02-16 13:29:00,33.8,17.6,29.95,NW,310,10.4,10.4,51,0.00,BKN,,0.00,WeatherDisplay:10.37,2013-02-16 18:29:00,
2013-02-16 13:34:00,33.6,17.4,29.95,NW,310,10.4,10.4,51,0.00,BKN,,0.00,WeatherDisplay:10.37,2013-02-16 18:34:00,
2013-02-16 13:39:00,34.2,17.9,29.95,NW,310,10.4,10.4,51,0.00,BKN,,0.00,WeatherDisplay:10.37,2013-02-16 18:39:00,
2013-02-16 13:44:00,34.3,18.1,29.95,NW,310,10.4,10.4,51,0.00,BKN,,0.00,WeatherDisplay:10.37,2013-02-16 18:44:00,
2013-02-16 13:49:00,34.3,18.1,29.95,NW,310,10.4,10.4,51,0.00,BKN,,0.00,WeatherDisplay:10.37,2013-02-16 18:49:00,
2013-02-16 13:54:00,33.8,17.6,29.95,NW,310,10.4,10.4,51,0.00,BKN,,0.00,WeatherDisplay:10.37,2013-02-16 18:54:00,
2013-02-16 13:59:00,34.2,17.9,29.95,NW,310,10.4,10.4,51,0.00,BKN,,0.00,WeatherDisplay:10.37,2013-02-16 18:59:00,
2013-02-16 14:04:00,34.3,17.1,29.95,West,280,8.1,8.1,49,0.00,BKN,,0.00,WeatherDisplay:10.37,2013-02-16 19:04:00,
2013-02-16 14:09:00,33.8,16.6,29.95,West,280,8.1,8.1,49,0.00,BKN,,0.00,WeatherDisplay:10.37,2013-02-16 19:09:00,
2013-02-16 14:14:00,33.6,16.5,29.95,West,280,8.1,8.1,49,0.00,BKN,,0.00,WeatherDisplay:10.37,2013-02-16 19:14:00,
2013-02-16 14:19:00,34.0,16.8,29.95,West,280,8.1,8.1,49,0.00,BKN,,0.00,WeatherDisplay:10.37,2013-02-16 19:19:00,
2013-02-16 14:24:00,33.8,16.6,29.95,West,280,8.1,8.1,49,0.00,BKN,,0.00,WeatherDisplay:10.37,2013-02-16 19:24:00,
2013-02-16 14:29:00,33.8,16.6,29.92,West,280,8.1,8.1,49,0.00,BKN,,0.00,WeatherDisplay:10.37,2013-02-16 19:29:00,
2013-02-16 14:34:00,34.0,16.8,29.92,West,280,8.1,8.1,49,0.00,BKN,,0.00,WeatherDisplay:10.37,2013-02-16 19:34:00,
2013-02-16 14:39:00,33.8,16.6,29.92,West,280,8.1,8.1,49,0.00,BKN,,0.00,WeatherDisplay:10.37,2013-02-16 19:39:00,
2013-02-16 14:44:00,33.6,16.5,29.92,West,280,8.1,8.1,49,0.00,BKN,,0.00,WeatherDisplay:10.37,2013-02-16 19:44:00,
2013-02-16 14:49:00,33.8,16.6,29.92,West,280,8.1,8.1,49,0.00,BKN,,0.00,WeatherDisplay:10.37,2013-02-16 19:49:00,
2013-02-16 14:54:00,33.8,16.6,29.92,West,280,8.1,8.1,49,0.00,BKN,,0.00,WeatherDisplay:10.37,2013-02-16 19:54:00,
2013-02-16 14:59:00,33.8,16.6,29.92,West,280,8.1,8.1,49,0.00,BKN,,0.00,WeatherDisplay:10.37,2013-02-16 19:59:00,
2013-02-16 15:04:00,33.4,14.8,29.92,NW,320,5.8,5.8,46,0.00,BKN,,0.00,WeatherDisplay:10.37,2013-02-16 20:04:00,
2013-02-16 15:09:00,33.4,14.8,29.92,NW,320,5.8,5.8,46,0.00,BKN,,0.00,WeatherDisplay:10.37,2013-02-16 20:09:00,
2013-02-16 15:14:00,33.3,14.7,29.92,NW,320,5.8,5.8,46,0.00,BKN,,0.00,WeatherDisplay:10.37,2013-02-16 20:14:00,
2013-02-16 15:19:00,33.3,14.7,29.92,NW,320,5.8,5.8,46,0.00,BKN,,0.00,WeatherDisplay:10.37,2013-02-16 20:19:00,
2013-02-16 15:24:00,33.4,14.8,29.92,NW,320,5.8,5.8,46,0.00,BKN,,0.00,WeatherDisplay:10.37,2013-02-16 20:24:00,
2013-02-16 15:29:00,33.1,14.5,29.92,NW,320,5.8,5.8,46,0.00,BKN,,0.00,WeatherDisplay:10.37,2013-02-16 20:29:00,
2013-02-16 15:34:00,33.1,14.5,29.92,NW,320,5.8,5.8,46,0.00,BKN,,0.00,WeatherDisplay:10.37,2013-02-16 20:34:00,
2013-02-16 15:39:00,32.9,14.4,29.92,NW,320,5.8,5.8,46,0.00,BKN,,0.00,WeatherDisplay:10.37,2013-02-16 20:39:00,
2013-02-16 15:44:00,32.9,14.4,29.92,NW,320,5.8,5.8,46,0.00,BKN,,0.00,WeatherDisplay:10.37,2013-02-16 20:44:00,
2013-02-16 15:49:00,32.7,14.2,29.92,NW,320,5.8,5.8,46,0.00,BKN,,0.00,WeatherDisplay:10.37,2013-02-16 20:49:00,
2013-02-16 15:54:00,32.7,14.2,29.92,NW,320,5.8,5.8,46,0.00,BKN,,0.00,WeatherDisplay:10.37,2013-02-16 20:54:00,
2013-02-16 15:59:00,32.7,14.2,29.92,NW,320,5.8,5.8,46,0.00,BKN,,0.00,WeatherDisplay:10.37,2013-02-16 20:59:00,
2013-02-16 16:04:00,32.7,14.2,29.92,WNW,290,6.9,6.9,46,0.00,BKN,,0.00,WeatherDisplay:10.37,2013-02-16 21:04:00,
2013-02-16 16:09:00,32.5,14.0,29.92,WNW,290,6.9,6.9,46,0.00,BKN,,0.00,WeatherDisplay:10.37,2013-02-16 21:09:00,
2013-02-16 16:14:00,32.5,14.0,29.92,WNW,290,6.9,6.9,46,0.00,BKN,,0.00,WeatherDisplay:10.37,2013-02-16 21:14:00,
2013-02-16 16:19:00,32.5,14.0,29.92,WNW,290,6.9,6.9,46,0.00,BKN,,0.00,WeatherDisplay:10.37,2013-02-16 21:19:00,
2013-02-16 16:24:00,32.2,13.7,29.92,WNW,290,6.9,6.9,46,0.00,BKN,,0.00,WeatherDisplay:10.37,2013-02-16 21:24:00,
2013-02-16 16:29:00,32.2,13.7,29.92,WNW,290,6.9,6.9,46,0.00,BKN,,0.00,WeatherDisplay:10.37,2013-02-16 21:29:00,
2013-02-16 16:34:00,32.2,13.7,29.92,WNW,290,6.9,6.9,46,0.00,BKN,,0.00,WeatherDisplay:10.37,2013-02-16 21:34:00,
2013-02-16 16:39:00,32.0,13.5,29.92,WNW,290,6.9,6.9,46,0.00,BKN,,0.00,WeatherDisplay:10.37,2013-02-16 21:39:00,
2013-02-16 16:44:00,32.0,13.5,29.92,WNW,290,6.9,6.9,46,0.00,BKN,,0.00,WeatherDisplay:10.37,2013-02-16 21:44:00,
2013-02-16 16:49:00,32.0,13.5,29.92,WNW,290,6.9,6.9,46,0.00,BKN,,0.00,WeatherDisplay:10.37,2013-02-16 21:49:00,
2013-02-16 16:54:00,31.8,13.4,29.92,WNW,290,6.9,6.9,46,0.00,BKN,,0.00,WeatherDisplay:10.37,2013-02-16 21:54:00,
2013-02-16 16:59:00,31.6,13.2,29.92,WNW,290,6.9,6.9,46,0.00,BKN,,0.00,WeatherDisplay:10.37,2013-02-16 21:59:00,
2013-02-16 17:04:00,31.5,14.0,29.92,NW,310,5.8,5.8,48,0.00,BKN,,0.00,WeatherDisplay:10.37,2013-02-16 22:04:00,
2013-02-16 17:09:00,31.5,14.0,29.92,NW,310,5.8,5.8,48,0.00,BKN,,0.00,WeatherDisplay:10.37,2013-02-16 22:09:00,
2013-02-16 17:14:00,31.5,14.0,29.92,NW,310,5.8,5.8,48,0.00,BKN,,0.00,WeatherDisplay:10.37,2013-02-16 22:14:00,
2013-02-16 17:19:00,31.5,14.0,29.92,NW,310,5.8,5.8,48,0.00,BKN,,0.00,WeatherDisplay:10.37,2013-02-16 22:19:00,
2013-02-16 17:24:00,31.3,13.8,29.92,NW,310,5.8,5.8,48,0.00,BKN,,0.00,WeatherDisplay:10.37,2013-02-16 22:24:00,
2013-02-16 17:29:00,31.1,13.7,29.92,NW,310,5.8,5.8,48,0.00,BKN,,0.00,WeatherDisplay:10.37,2013-02-16 22:29:00,
2013-02-16 17:34:00,31.1,13.7,29.92,NW,310,5.8,5.8,48,0.00,BKN,,0.00,WeatherDisplay:10.37,2013-02-16 22:34:00,
2013-02-16 17:39:00,31.1,13.7,29.92,NW,310,5.8,5.8,48,0.00,BKN,,0.00,WeatherDisplay:10.37,2013-02-16 22:39:00,
2013-02-16 17:44:00,30.9,13.5,29.92,NW,310,5.8,5.8,48,0.00,BKN,,0.00,WeatherDisplay:10.37,2013-02-16 22:44:00,
2013-02-16 17:49:00,30.9,13.5,29.92,NW,310,5.8,5.8,48,0.00,BKN,,0.00,WeatherDisplay:10.37,2013-02-16 22:49:00,
2013-02-16 17:54:00,30.7,13.3,29.92,NW,310,5.8,5.8,48,0.00,BKN,,0.00,WeatherDisplay:10.37,2013-02-16 22:54:00,
2013-02-16 17:59:00,30.7,13.3,29.92,NW,310,5.8,5.8,48,0.00,BKN,,0.00,WeatherDisplay:10.37,2013-02-16 22:59:00,
2013-02-16 18:04:00,30.6,15.4,29.92,WNW,300,5.8,5.8,53,0.00,BKN,,0.00,WeatherDisplay:10.37,2013-02-16 23:04:00,
2013-02-16 18:09:00,30.6,15.4,29.92,WNW,300,5.8,5.8,53,0.00,BKN,,0.00,WeatherDisplay:10.37,2013-02-16 23:09:00,
2013-02-16 18:14:00,30.6,15.4,29.92,WNW,300,5.8,5.8,53,0.00,BKN,,0.00,WeatherDisplay:10.37,2013-02-16 23:14:00,
2013-02-16 18:19:00,30.6,15.4,29.92,WNW,300,5.8,5.8,53,0.00,BKN,,0.00,WeatherDisplay:10.37,2013-02-16 23:19:00,
2013-02-16 18:24:00,30.4,15.3,29.92,WNW,300,5.8,5.8,53,0.00,BKN,,0.00,WeatherDisplay:10.37,2013-02-16 23:24:00,
2013-02-16 18:29:00,30.4,15.3,29.92,WNW,300,5.8,5.8,53,0.00,BKN,,0.00,WeatherDisplay:10.37,2013-02-16 23:29:00,
2013-02-16 18:34:00,30.4,15.3,29.92,WNW,300,5.8,5.8,53,0.00,BKN,,0.00,WeatherDisplay:10.37,2013-02-16 23:34:00,
2013-02-16 18:39:00,30.2,15.1,29.92,WNW,300,5.8,5.8,53,0.00,BKN,,0.00,WeatherDisplay:10.37,2013-02-16 23:39:00,
2013-02-16 18:44:00,30.2,15.1,29.92,WNW,300,5.8,5.8,53,0.00,BKN,,0.00,WeatherDisplay:10.37,2013-02-16 23:44:00,
2013-02-16 18:49:00,30.2,15.1,29.92,WNW,300,5.8,5.8,53,0.00,BKN,,0.00,WeatherDisplay:10.37,2013-02-16 23:49:00,
2013-02-16 18:54:00,30.2,15.1,29.92,WNW,300,5.8,5.8,53,0.00,BKN,,0.00,WeatherDisplay:10.37,2013-02-16 23:54:00,
2013-02-16 18:59:00,30.2,15.1,29.92,WNW,300,5.8,5.8,53,0.00,BKN,,0.00,WeatherDisplay:10.37,2013-02-16 23:59:00,
2013-02-16 19:04:00,30.2,12.8,29.92,NNW,330,10.4,10.4,48,0.00,OVC,,0.00,WeatherDisplay:10.37,2013-02-17 00:04:00,
2013-02-16 19:09:00,30.2,12.8,29.92,NNW,330,10.4,10.4,48,0.00,OVC,,0.00,WeatherDisplay:10.37,2013-02-17 00:09:00,
2013-02-16 19:14:00,30.2,12.8,29.92,NNW,330,10.4,10.4,48,0.00,OVC,,0.00,WeatherDisplay:10.37,2013-02-17 00:14:00,
2013-02-16 19:19:00,30.2,12.8,29.92,NNW,330,10.4,10.4,48,0.00,OVC,,0.00,WeatherDisplay:10.37,2013-02-17 00:19:00,
2013-02-16 19:24:00,30.2,12.8,29.92,NNW,330,10.4,10.4,48,0.00,OVC,,0.00,WeatherDisplay:10.37,2013-02-17 00:24:00,
2013-02-16 19:29:00,30.0,12.7,29.92,NNW,330,10.4,10.4,48,0.00,OVC,,0.00,WeatherDisplay:10.37,2013-02-17 00:29:00,
2013-02-16 19:34:00,30.0,12.7,29.92,NNW,330,10.4,10.4,48,0.00,OVC,,0.00,WeatherDisplay:10.37,2013-02-17 00:34:00,
2013-02-16 19:39:00,30.0,12.7,29.92,NNW,330,10.4,10.4,48,0.00,OVC,,0.00,WeatherDisplay:10.37,2013-02-17 00:39:00,
2013-02-16 19:44:00,29.8,12.5,29.92,NNW,330,10.4,10.4,48,0.00,OVC,,0.00,WeatherDisplay:10.37,2013-02-17 00:44:00,
2013-02-16 19:49:00,29.8,12.5,29.92,NNW,330,10.4,10.4,48,0.00,OVC,,0.00,WeatherDisplay:10.37,2013-02-17 00:49:00,
2013-02-16 19:54:00,29.8,12.5,29.92,NNW,330,10.4,10.4,48,0.00,OVC,,0.00,WeatherDisplay:10.37,2013-02-17 00:54:00,
2013-02-16 19:59:00,29.8,12.5,29.92,NNW,330,10.4,10.4,48,0.00,OVC,,0.00,WeatherDisplay:10.37,2013-02-17 00:59:00,
2013-02-16 20:04:00,29.7,14.2,29.92,North,10,11.5,11.5,52,0.00,OVC,,0.00,WeatherDisplay:10.37,2013-02-17 01:04:00,
2013-02-16 20:09:00,29.7,14.2,29.92,North,10,11.5,11.5,52,0.00,OVC,,0.00,WeatherDisplay:10.37,2013-02-17 01:09:00,
2013-02-16 20:15:00,29.5,14.0,29.92,North,10,11.5,11.5,52,0.00,OVC,,0.00,WeatherDisplay:10.37,2013-02-17 01:15:00,
2013-02-16 20:20:00,29.5,14.0,29.92,North,10,11.5,11.5,52,0.00,OVC,,0.00,WeatherDisplay:10.37,2013-02-17 01:20:00,
2013-02-16 20:25:00,29.3,13.8,29.92,North,10,11.5,11.5,52,0.00,OVC,,0.00,WeatherDisplay:10.37,2013-02-17 01:25:00,
2013-02-16 20:30:00,29.3,13.8,29.89,North,10,11.5,11.5,52,0.00,OVC,,0.00,WeatherDisplay:10.37,2013-02-17 01:30:00,
2013-02-16 20:35:00,29.1,13.7,29.89,North,10,11.5,11.5,52,0.00,OVC,,0.00,WeatherDisplay:10.37,2013-02-17 01:35:00,
2013-02-16 20:40:00,28.9,13.5,29.89,North,10,11.5,11.5,52,0.00,OVC,,0.00,WeatherDisplay:10.37,2013-02-17 01:40:00,
2013-02-16 20:45:00,28.9,13.5,29.89,North,10,11.5,11.5,52,0.00,OVC,,0.00,WeatherDisplay:10.37,2013-02-17 01:45:00,
2013-02-16 20:50:00,28.8,13.3,29.89,North,10,11.5,11.5,52,0.00,OVC,,0.00,WeatherDisplay:10.37,2013-02-17 01:50:00,
2013-02-16 20:55:00,28.8,13.3,29.89,North,10,11.5,11.5,52,0.00,OVC,,0.00,WeatherDisplay:10.37,2013-02-17 01:55:00,
2013-02-16 21:00:00,28.6,13.2,29.92,North,10,11.5,11.5,52,0.00,OVC,,0.00,WeatherDisplay:10.37,2013-02-17 02:00:00,
2013-02-16 21:05:00,28.6,11.3,29.92,North,10,13.8,13.8,48,0.00,OVC,,0.00,WeatherDisplay:10.37,2013-02-17 02:05:00,
2013-02-16 21:10:00,28.6,11.3,29.92,North,10,13.8,13.8,48,0.00,OVC,,0.00,WeatherDisplay:10.37,2013-02-17 02:10:00,
2013-02-16 21:15:00,28.6,11.3,29.89,North,10,13.8,13.8,48,0.00,OVC,,0.00,WeatherDisplay:10.37,2013-02-17 02:15:00,
2013-02-16 21:20:00,28.6,11.3,29.89,North,10,13.8,13.8,48,0.00,OVC,,0.00,WeatherDisplay:10.37,2013-02-17 02:20:00,
2013-02-16 21:25:00,28.4,11.2,29.89,North,10,13.8,13.8,48,0.00,OVC,,0.00,WeatherDisplay:10.37,2013-02-17 02:25:00,
2013-02-16 21:30:00,28.4,11.2,29.89,North,10,13.8,13.8,48,0.00,OVC,,0.00,WeatherDisplay:10.37,2013-02-17 02:30:00,
2013-02-16 21:35:00,28.4,11.2,29.89,North,10,14.0,14.0,48,0.00,OVC,OVC,0.00,WeatherDisplay:10.37,2013-02-17 02:35:00,
2013-02-16 21:40:00,28.2,11.0,29.89,North,10,13.8,13.8,48,0.00,OVC,,0.00,WeatherDisplay:10.37,2013-02-17 02:40:00,
2013-02-16 21:45:00,28.2,11.0,29.89,North,10,13.8,13.8,48,0.00,OVC,,0.00,WeatherDisplay:10.37,2013-02-17 02:45:00,
2013-02-16 21:50:00,28.0,10.8,29.89,North,10,13.8,13.8,48,0.00,OVC,,0.00,WeatherDisplay:10.37,2013-02-17 02:50:00,
2013-02-16 21:55:00,27.9,10.7,29.89,North,10,14.0,14.0,48,0.00,OVC,OVC,0.00,WeatherDisplay:10.37,2013-02-17 02:55:00,
2013-02-16 22:00:00,27.9,10.7,29.89,North,10,14.0,14.0,48,0.00,OVC,OVC,0.00,WeatherDisplay:10.37,2013-02-17 03:00:00,
2013-02-16 22:05:00,27.7,10.5,29.89,North,10,14.0,14.0,48,0.00,OVC,OVC,0.00,WeatherDisplay:10.37,2013-02-17 03:05:00,
2013-02-16 22:10:00,27.5,10.4,29.89,North,10,14.0,14.0,48,0.00,OVC,OVC,0.00,WeatherDisplay:10.37,2013-02-17 03:10:00,
2013-02-16 22:15:00,27.5,10.3,29.89,North,10,14.0,14.0,48,0.00,OVC,OVC,0.00,WeatherDisplay:10.37,2013-02-17 03:15:00,
2013-02-16 22:20:00,27.3,9.7,29.89,NNE,18,9.0,14.0,47,0.00,OVC,OVC,0.00,WeatherDisplay:10.37,2013-02-17 03:20:00,
2013-02-16 22:25:00,27.0,9.4,29.89,NNE,30,9.0,9.0,47,0.00,OVC,OVC,0.00,WeatherDisplay:10.37,2013-02-17 03:25:00,
2013-02-16 22:30:00,27.0,9.4,29.89,NNE,30,9.0,9.0,47,0.00,OVC,OVC,0.00,WeatherDisplay:10.37,2013-02-17 03:30:00,
2013-02-16 22:35:00,27.0,9.4,29.89,NNE,30,9.0,9.0,47,0.00,OVC,OVC,0.00,WeatherDisplay:10.37,2013-02-17 03:35:00,
2013-02-16 22:40:00,26.8,9.2,29.89,NNE,30,9.0,9.0,47,0.00,OVC,OVC,0.00,WeatherDisplay:10.37,2013-02-17 03:40:00,
2013-02-16 22:45:00,26.6,9.1,29.89,NNE,30,9.0,9.0,47,0.00,OVC,OVC,0.00,WeatherDisplay:10.37,2013-02-17 03:45:00,
2013-02-16 22:50:00,26.6,9.1,29.89,NNE,30,9.0,9.0,47,0.00,OVC,OVC,0.00,WeatherDisplay:10.37,2013-02-17 03:50:00,
2013-02-16 22:55:00,26.4,8.9,29.89,NNE,30,9.2,9.2,47,0.00,OVC,,0.00,WeatherDisplay:10.37,2013-02-17 03:55:00,
2013-02-16 23:00:00,26.4,8.9,29.89,NNE,30,9.2,9.2,47,0.00,OVC,,0.00,WeatherDisplay:10.37,2013-02-17 04:00:00,
2013-02-16 23:05:00,26.2,8.7,29.89,NNE,30,9.2,9.2,47,0.00,OVC,,0.00,WeatherDisplay:10.37,2013-02-17 04:05:00,
2013-02-16 23:10:00,26.2,8.7,29.89,NNE,30,9.2,9.2,47,0.00,OVC,,0.00,WeatherDisplay:10.37,2013-02-17 04:10:00,
2013-02-16 23:15:00,26.1,8.6,29.89,NNE,30,9.2,9.2,47,0.00,OVC,,0.00,WeatherDisplay:10.37,2013-02-17 04:15:00,
2013-02-16 23:20:00,26.1,7.6,29.89,NNE,20,10.4,10.4,45,0.00,OVC,,0.00,WeatherDisplay:10.37,2013-02-17 04:20:00,
2013-02-16 23:25:00,25.9,7.4,29.89,NNE,20,10.4,10.4,45,0.00,OVC,,0.00,WeatherDisplay:10.37,2013-02-17 04:25:00,
2013-02-16 23:30:00,25.7,7.3,29.86,NNE,20,10.4,10.4,45,0.00,OVC,,0.00,WeatherDisplay:10.37,2013-02-17 04:30:00,
2013-02-16 23:35:00,25.7,7.3,29.86,NNE,20,10.4,10.4,45,0.00,OVC,,0.00,WeatherDisplay:10.37,2013-02-17 04:35:00,
2013-02-16 23:40:00,25.5,7.1,29.86,NNE,20,10.4,10.4,45,0.00,OVC,,0.00,WeatherDisplay:10.37,2013-02-17 04:40:00,
2013-02-16 23:45:00,25.5,7.1,29.86,NNE,20,10.4,10.4,45,0.00,OVC,,0.00,WeatherDisplay:10.37,2013-02-17 04:45:00,
2013-02-16 23:50:00,25.5,7.1,29.86,NNE,20,10.4,10.4,45,0.00,OVC,,0.00,WeatherDisplay:10.37,2013-02-17 04:50:00,
2013-02-16 23:55:00,25.3,6.9,29.86,NNE,20,10.4,10.4,45,0.00,OVC,,0.00,WeatherDisplay:10.37,2013-02-17 04:55:00,